Saint-Flour-Coltines Airport

METAR LFMH TAF LFLY
0 °C
°C
-
°C
6m
Wiek
02:05:59
LT
01:05
UTC
0 ft

1.000

2.000

3.000

4.000

5.000

OVC 2.100
MVFR
<?= Yii::t('app', 'Wind direction') ?> <?= Yii::t('app', 'of'); ?>
350°
08:08
Wschód słońca
75%
Wilgotność
Siła wiatru
Zamknięte/Śnieg
Zasięg wzroku na RWY
Stan RWY
Widzialność pionowa
Min. widoczność
CAVOK
Trend
Korekta
Raport specjalny
1019 hPa
QNH
METAR LFMH 280100Z AUTO 35008KT 9999 OVC021 M00/M04 Q1019
Pochmurny
3 kt
3 kt
02:00
MVFR
10 kt
03:00
MVFR
10 kt
04:00
MVFR
10 kt
05:00
MVFR
10 kt
06:00
MVFR
10 kt
07:00
MVFR
10 kt
08:00
MVFR
10 kt
10 km+
Widoczność
2.100 ft
Sufit
8 kt
Wiatr
metar-taf.com/LFHQ

Metar-Taf.com

Dekoder wizualny

My i strony trzecie śledzimy Twoje zachowanie internetowe na naszej stronie za pomocą plików cookie. Jeśli kontynuujesz, zakładamy, że zgadzasz się z naszymi polityka plików cookie.